createdAt,value
2023-04-18T00:00:17.484Z,87.8088
2023-04-18T00:01:18.111Z,87.8224
2023-04-18T00:02:19.067Z,87.8791
2023-04-18T00:03:19.312Z,87.6571
2023-04-18T00:04:21.362Z,87.8103
2023-04-18T00:05:22.206Z,88.1716
2023-04-18T00:06:23.030Z,88.0819
2023-04-18T00:07:23.928Z,87.9986
2023-04-18T00:08:24.270Z,87.7907
2023-04-18T00:09:25.142Z,87.6626
2023-04-18T00:10:25.793Z,87.5816
2023-04-18T00:11:26.466Z,87.0516
2023-04-18T00:12:27.043Z,87.2640
2023-04-18T00:13:27.632Z,87.5614
2023-04-18T00:14:27.666Z,87.5585
2023-04-18T00:15:28.487Z,87.6594
2023-04-18T00:16:29.165Z,87.4167
2023-04-18T00:17:30.044Z,87.3913
2023-04-18T00:18:30.556Z,87.3577
2023-04-18T00:19:31.077Z,87.4157
2023-04-18T00:20:31.643Z,87.1351
2023-04-18T00:21:32.175Z,87.3532
2023-04-18T00:22:32.802Z,86.9101
2023-04-18T00:23:33.779Z,86.7223
2023-04-18T00:24:34.800Z,86.8943
2023-04-18T00:25:35.404Z,86.7171
2023-04-18T00:26:36.041Z,86.9767
2023-04-18T00:27:36.436Z,87.1451
2023-04-18T00:28:37.133Z,87.2807
2023-04-18T00:29:37.516Z,87.4113
2023-04-18T00:30:38.121Z,87.1825
2023-04-18T00:31:39.318Z,86.3332
2023-04-18T00:32:39.911Z,86.5580
2023-04-18T00:33:40.637Z,86.7824
2023-04-18T00:34:41.214Z,86.7385
2023-04-18T00:35:41.699Z,86.7323
2023-04-18T00:36:42.260Z,86.6291
2023-04-18T00:37:42.753Z,86.8058
2023-04-18T00:38:43.298Z,86.7072
2023-04-18T00:39:43.814Z,86.5763
2023-04-18T00:40:44.198Z,86.4248
2023-04-18T00:41:44.807Z,86.7513
2023-04-18T00:42:45.378Z,86.7113
2023-04-18T00:43:45.794Z,86.7612
2023-04-18T00:44:46.828Z,86.3792
2023-04-18T00:45:47.215Z,86.7513
2023-04-18T00:46:48.415Z,86.7822
2023-04-18T00:47:49.289Z,86.7595
2023-04-18T00:48:49.996Z,87.1163
2023-04-18T00:49:50.881Z,86.6467
2023-04-18T00:50:51.549Z,87.0012
2023-04-18T00:51:52.029Z,87.2078
2023-04-18T00:52:52.636Z,86.9718
2023-04-18T00:53:53.106Z,86.9607
2023-04-18T00:54:54.227Z,87.0137
2023-04-18T00:55:54.856Z,87.0296
2023-04-18T00:56:55.330Z,86.7603
2023-04-18T00:57:55.883Z,87.1045
2023-04-18T00:58:56.453Z,86.8765
2023-04-18T00:59:56.843Z,86.5432
2023-04-18T01:00:57.435Z,86.6673
2023-04-18T01:01:58.110Z,86.7588
2023-04-18T01:02:58.362Z,87.0849
2023-04-18T01:03:58.449Z,87.1660
2023-04-18T01:04:59.164Z,87.1973
2023-04-18T01:05:59.850Z,87.2134
2023-04-18T01:07:00.416Z,86.9791
2023-04-18T01:08:00.987Z,86.9605
2023-04-18T01:09:01.727Z,87.0603
2023-04-18T01:10:02.471Z,86.6449
2023-04-18T01:11:02.850Z,86.1195
2023-04-18T01:12:03.424Z,86.2090
2023-04-18T01:13:03.849Z,86.6299
2023-04-18T01:14:04.354Z,86.8865
2023-04-18T01:15:04.885Z,87.2529
2023-04-18T01:16:05.503Z,86.6322
2023-04-18T01:17:06.685Z,86.5719
2023-04-18T01:18:07.452Z,86.7760
2023-04-18T01:19:07.907Z,87.2504
2023-04-18T01:20:08.566Z,87.0436
2023-04-18T01:21:09.306Z,86.8397
2023-04-18T01:22:09.901Z,86.6573
2023-04-18T01:23:10.461Z,86.6415
2023-04-18T01:24:11.154Z,86.5558
2023-04-18T01:25:11.537Z,86.8122
2023-04-18T01:26:12.217Z,87.0106
2023-04-18T01:27:12.798Z,86.7792
2023-04-18T01:28:13.393Z,86.3889
2023-04-18T01:29:13.762Z,87.0853
2023-04-18T01:30:14.823Z,87.1470
2023-04-18T01:31:15.498Z,87.2139
2023-04-18T01:32:16.102Z,87.3633
2023-04-18T01:33:17.039Z,86.7792
2023-04-18T01:34:17.785Z,86.8841
2023-04-18T01:35:18.297Z,87.4640
2023-04-18T01:36:18.853Z,87.6034
2023-04-18T01:37:19.263Z,87.1849
2023-04-18T01:38:19.751Z,87.0183
2023-04-18T01:39:20.452Z,87.1387
2023-04-18T01:40:20.876Z,86.9092
2023-04-18T01:41:21.477Z,86.8561
2023-04-18T01:42:22.411Z,87.0442
2023-04-18T01:43:22.849Z,86.8534
2023-04-18T01:44:23.448Z,86.8607
2023-04-18T01:45:23.894Z,87.3097
2023-04-18T01:46:24.678Z,86.5734
2023-04-18T01:47:25.704Z,86.6462
2023-04-18T01:48:26.235Z,86.8276
2023-04-18T01:49:26.869Z,87.1481
2023-04-18T01:50:27.439Z,86.6132
2023-04-18T01:51:27.864Z,86.9667
2023-04-18T01:52:28.612Z,87.1765
2023-04-18T01:53:28.941Z,87.4513
2023-04-18T01:54:29.963Z,87.6290
2023-04-18T01:55:30.510Z,87.5287
2023-04-18T01:56:30.941Z,87.4940
2023-04-18T01:57:31.684Z,87.4660
2023-04-18T01:58:32.328Z,87.3230
2023-04-18T01:59:32.645Z,87.1947
2023-04-18T02:00:33.259Z,87.4832
2023-04-18T02:01:33.913Z,86.9110
2023-04-18T02:02:35.033Z,87.2689
2023-04-18T02:03:35.583Z,87.5058
2023-04-18T02:04:35.452Z,87.5500
2023-04-18T02:05:36.002Z,87.5097
2023-04-18T02:06:36.559Z,87.5822
2023-04-18T02:07:37.117Z,87.7395
2023-04-18T02:08:37.766Z,87.8391
2023-04-18T02:09:38.195Z,88.1233
2023-04-18T02:10:38.698Z,88.2054
2023-04-18T02:11:39.333Z,87.9402
2023-04-18T02:12:39.748Z,87.9765
2023-04-18T02:13:40.315Z,88.0303
2023-04-18T02:14:40.862Z,88.0455
2023-04-18T02:15:41.204Z,88.0245
2023-04-18T02:16:42.132Z,88.1068
2023-04-18T02:17:42.829Z,87.9509
2023-04-18T02:18:43.539Z,87.9338
2023-04-18T02:19:44.177Z,87.7483
2023-04-18T02:20:44.785Z,87.6822
2023-04-18T02:21:45.335Z,87.6955
2023-04-18T02:22:45.904Z,87.6432
2023-04-18T02:23:46.409Z,87.8481
2023-04-18T02:24:47.230Z,87.9656
2023-04-18T02:25:47.730Z,87.7896
2023-04-18T02:26:48.484Z,88.0788
2023-04-18T02:27:49.214Z,88.2255
2023-04-18T02:28:49.989Z,88.1855
2023-04-18T02:29:50.637Z,88.1922
2023-04-18T02:30:51.590Z,87.9213
2023-04-18T02:31:52.278Z,87.6263
2023-04-18T02:32:53.465Z,87.8677
2023-04-18T02:33:53.957Z,88.2709
2023-04-18T02:34:54.756Z,88.0895
2023-04-18T02:35:55.358Z,88.0771
2023-04-18T02:36:55.815Z,88.0386
2023-04-18T02:37:56.433Z,87.9019
2023-04-18T02:38:56.981Z,87.8211
2023-04-18T02:39:57.377Z,87.5446
2023-04-18T02:40:58.040Z,87.6001
2023-04-18T02:41:58.415Z,87.7295
2023-04-18T02:42:58.990Z,87.8533
2023-04-18T02:43:59.633Z,88.0628
2023-04-18T02:45:00.117Z,88.1199
2023-04-18T02:46:00.873Z,88.4894
2023-04-18T02:47:01.689Z,88.3828
2023-04-18T02:48:02.679Z,88.1828
2023-04-18T02:49:03.556Z,87.8700
2023-04-18T02:50:04.155Z,87.8695
2023-04-18T02:51:04.679Z,88.1393
2023-04-18T02:52:05.301Z,88.3068
2023-04-18T02:53:05.736Z,88.1893
2023-04-18T02:54:06.288Z,88.3239
2023-04-18T02:55:06.897Z,88.4143
2023-04-18T02:56:07.414Z,88.3194
2023-04-18T02:57:08.134Z,88.0212
2023-04-18T02:58:08.744Z,88.0596
2023-04-18T02:59:09.283Z,87.9341
2023-04-18T03:00:09.883Z,88.0602
2023-04-18T03:01:10.381Z,88.1605
2023-04-18T03:02:11.336Z,88.1858
2023-04-18T03:03:11.368Z,88.2050
2023-04-18T03:04:12.325Z,88.1128
2023-04-18T03:05:12.705Z,88.0779
2023-04-18T03:06:13.388Z,88.1065
2023-04-18T03:07:13.766Z,88.1148
2023-04-18T03:08:14.560Z,88.1985
2023-04-18T03:09:14.939Z,88.1568
2023-04-18T03:10:15.542Z,88.3904
2023-04-18T03:11:16.087Z,88.1996
2023-04-18T03:12:16.522Z,88.0595
2023-04-18T03:13:17.108Z,88.3182
2023-04-18T03:14:17.736Z,88.4665
2023-04-18T03:15:18.122Z,88.0555
2023-04-18T03:16:18.986Z,88.0257
2023-04-18T03:17:19.744Z,88.2343
2023-04-18T03:18:20.321Z,88.3571
2023-04-18T03:19:21.059Z,88.1005
2023-04-18T03:20:21.547Z,88.0152
2023-04-18T03:21:22.144Z,88.0942
2023-04-18T03:22:22.813Z,88.2938
2023-04-18T03:23:23.314Z,88.2074
2023-04-18T03:24:23.819Z,88.0695
2023-04-18T03:25:24.183Z,88.0932
2023-04-18T03:26:24.710Z,88.3829
2023-04-18T03:27:25.258Z,88.4300
2023-04-18T03:28:25.776Z,88.5292
2023-04-18T03:29:26.409Z,88.3201
2023-04-18T03:30:27.074Z,88.4447
2023-04-18T03:31:27.767Z,88.6163
2023-04-18T03:32:28.658Z,88.5257
2023-04-18T03:33:29.309Z,88.3269
2023-04-18T03:34:29.751Z,88.4600
2023-04-18T03:35:30.430Z,88.0290
2023-04-18T03:36:30.987Z,88.2213
2023-04-18T03:37:31.523Z,88.0586
2023-04-18T03:38:32.107Z,88.0919
2023-04-18T03:39:32.545Z,88.2768
2023-04-18T03:40:33.141Z,88.5228
2023-04-18T03:41:33.682Z,88.4912
2023-04-18T03:42:34.336Z,88.5513
2023-04-18T03:43:34.991Z,88.5925
2023-04-18T03:44:36.245Z,88.5851
2023-04-18T03:45:36.825Z,88.5673
2023-04-18T03:46:38.085Z,88.5562
2023-04-18T03:47:38.997Z,88.4297
2023-04-18T03:48:40.396Z,88.0961
2023-04-18T03:50:40.259Z,88.4926
2023-04-18T03:51:40.971Z,88.6195
2023-04-18T03:52:41.371Z,88.0306
2023-04-18T03:53:41.734Z,88.1798
2023-04-18T03:54:42.886Z,88.2938
2023-04-18T03:55:43.294Z,88.5365
2023-04-18T03:56:43.978Z,88.3193
2023-04-18T03:57:44.478Z,88.1807
2023-04-18T03:58:44.906Z,87.9226
2023-04-18T03:59:47.321Z,88.4036
2023-04-18T04:00:45.772Z,88.5264
2023-04-18T04:01:46.290Z,88.3264
2023-04-18T04:02:46.812Z,88.4240
2023-04-18T04:03:47.443Z,88.4181
2023-04-18T04:04:47.505Z,88.1040
2023-04-18T04:05:48.245Z,88.2790
2023-04-18T04:06:48.945Z,88.2290
2023-04-18T04:07:49.589Z,88.0396
2023-04-18T04:08:50.145Z,88.0880
2023-04-18T04:09:50.761Z,88.0779
2023-04-18T04:10:51.184Z,87.6787
2023-04-18T04:11:51.674Z,88.0449
2023-04-18T04:12:52.282Z,87.8672
2023-04-18T04:13:52.720Z,87.7961
2023-04-18T04:14:53.930Z,88.0022
2023-04-18T04:15:54.487Z,87.9678
2023-04-18T04:16:55.307Z,87.7206
2023-04-18T04:17:56.187Z,88.0660
2023-04-18T04:18:56.949Z,87.7549
2023-04-18T04:19:57.359Z,87.9116
2023-04-18T04:20:57.939Z,88.0235
2023-04-18T04:21:58.346Z,88.1041
2023-04-18T04:22:58.948Z,88.0898
2023-04-18T04:23:59.588Z,88.3568
2023-04-18T04:25:00.304Z,88.2793
2023-04-18T04:26:00.912Z,88.2531
2023-04-18T04:27:01.557Z,88.4329
2023-04-18T04:28:02.532Z,88.1244
2023-04-18T04:29:03.201Z,88.5598
2023-04-18T04:30:03.931Z,88.0995
2023-04-18T04:31:05.025Z,88.3074
2023-04-18T04:32:05.159Z,88.3839
2023-04-18T04:33:06.129Z,88.3423
2023-04-18T04:36:07.374Z,88.2928
2023-04-18T04:37:08.144Z,88.6078
2023-04-18T04:38:08.718Z,88.2846
2023-04-18T04:39:09.454Z,88.2802
2023-04-18T04:40:10.669Z,88.4044
2023-04-18T04:41:11.593Z,88.5343
2023-04-18T04:42:12.804Z,88.5365
2023-04-18T04:43:13.888Z,88.2395
2023-04-18T04:44:14.851Z,88.3094
2023-04-18T04:45:15.429Z,88.3390
2023-04-18T04:46:16.210Z,88.2424
2023-04-18T04:47:16.801Z,88.0598
2023-04-18T04:48:17.034Z,88.1202
2023-04-18T04:49:17.935Z,88.0820
2023-04-18T04:50:18.869Z,88.1907
2023-04-18T04:51:19.674Z,88.4922
2023-04-18T04:52:20.373Z,88.5035
2023-04-18T04:53:21.000Z,88.4789
2023-04-18T04:54:21.519Z,88.4285
2023-04-18T04:55:21.985Z,88.4876
2023-04-18T04:56:22.932Z,88.2689
2023-04-18T04:57:23.615Z,88.0608
2023-04-18T04:58:24.155Z,87.9503
2023-04-18T04:59:24.792Z,88.1277
2023-04-18T05:00:25.606Z,88.0598
2023-04-18T05:01:26.423Z,88.4095
2023-04-18T05:02:26.857Z,88.2171
2023-04-18T05:03:28.747Z,88.0147
2023-04-18T05:04:29.097Z,87.9927
2023-04-18T05:05:30.202Z,88.1748
2023-04-18T05:06:30.846Z,88.2324
2023-04-18T05:07:31.836Z,87.9556
2023-04-18T05:08:32.683Z,88.4589
2023-04-18T05:09:33.267Z,88.6290
2023-04-18T05:10:33.901Z,88.5942
2023-04-18T05:11:34.585Z,88.5171
2023-04-18T05:12:35.184Z,88.4426
2023-04-18T05:13:36.160Z,88.4615
2023-04-18T05:14:36.553Z,88.5143
2023-04-18T05:15:37.463Z,88.6355
2023-04-18T05:16:37.709Z,88.7502
2023-04-18T05:17:38.745Z,88.6916
2023-04-18T05:18:39.478Z,88.7130
2023-04-18T05:19:40.340Z,88.4608
2023-04-18T05:20:41.013Z,88.7203
2023-04-18T05:21:41.731Z,88.5461
2023-04-18T05:22:43.033Z,88.8134
2023-04-18T05:23:42.859Z,88.4496
2023-04-18T05:24:43.056Z,88.4850
2023-04-18T05:25:43.713Z,88.2367
2023-04-18T05:26:44.697Z,88.3370
2023-04-18T05:27:45.946Z,88.3689
2023-04-18T05:28:46.802Z,88.3963
2023-04-18T05:29:47.579Z,88.2779
2023-04-18T05:30:48.912Z,88.2993
2023-04-18T05:31:49.906Z,88.4076
2023-04-18T05:32:50.312Z,88.2677
2023-04-18T05:33:50.334Z,88.2584
2023-04-18T05:34:51.460Z,88.2322
2023-04-18T05:35:53.496Z,88.3413
2023-04-18T05:36:53.668Z,88.3710
2023-04-18T05:37:54.476Z,88.2998
2023-04-18T05:38:55.371Z,88.4154
2023-04-18T05:39:55.938Z,87.9854
2023-04-18T05:40:56.290Z,87.9076
2023-04-18T05:41:56.724Z,87.9756
2023-04-18T05:42:57.911Z,88.0813
2023-04-18T05:44:05.261Z,88.2323
2023-04-18T05:45:02.438Z,88.2188
2023-04-18T05:48:04.054Z,88.0431
2023-04-18T05:49:04.813Z,88.2007
2023-04-18T05:50:05.567Z,88.3887
2023-04-18T05:51:06.487Z,88.2507
2023-04-18T05:52:07.678Z,88.0049
2023-04-18T05:53:08.531Z,88.2793
2023-04-18T05:54:09.151Z,88.2884
2023-04-18T05:55:09.147Z,88.0870
2023-04-18T05:56:09.647Z,88.1257
2023-04-18T05:57:10.696Z,87.9823
2023-04-18T05:58:11.356Z,87.8306
2023-04-18T05:59:11.957Z,87.8348
2023-04-18T06:00:12.666Z,87.7361
2023-04-18T06:01:13.889Z,87.8689
2023-04-18T06:02:14.722Z,87.7587
2023-04-18T06:03:16.047Z,87.7368
2023-04-18T06:04:16.809Z,87.9621
2023-04-18T06:05:17.253Z,87.6075
2023-04-18T06:06:17.934Z,87.4182
2023-04-18T06:07:18.386Z,87.6946
2023-04-18T06:08:19.212Z,87.5157
2023-04-18T06:09:19.852Z,87.7687
2023-04-18T06:10:20.556Z,87.8428
2023-04-18T06:11:21.403Z,87.7884
2023-04-18T06:12:22.324Z,87.7694
2023-04-18T06:13:22.993Z,87.4957
2023-04-18T06:14:23.828Z,87.6906
2023-04-18T06:15:25.050Z,87.7107
2023-04-18T06:16:25.974Z,87.4661
2023-04-18T06:17:25.972Z,87.5371
2023-04-18T06:18:26.915Z,87.5804
2023-04-18T06:19:27.100Z,87.5775
2023-04-18T06:20:28.323Z,87.2818
2023-04-18T06:21:28.897Z,87.6111
2023-04-18T06:22:29.982Z,87.6899
2023-04-18T06:23:30.609Z,87.6958
2023-04-18T06:24:31.357Z,87.7105
2023-04-18T06:25:31.005Z,87.5305
2023-04-18T06:26:31.502Z,87.2439
2023-04-18T06:27:34.535Z,86.8414
2023-04-18T06:28:35.388Z,86.8855
2023-04-18T06:29:36.855Z,87.1876
2023-04-18T06:30:36.220Z,86.8151
2023-04-18T06:31:37.082Z,87.3686
2023-04-18T06:32:37.932Z,87.2496
2023-04-18T06:33:38.618Z,87.1496
2023-04-18T06:34:39.866Z,87.5036
2023-04-18T06:35:40.505Z,87.1739
2023-04-18T06:36:41.153Z,87.0008
2023-04-18T06:37:41.389Z,87.2921
2023-04-18T06:38:42.077Z,87.1440
2023-04-18T06:39:42.772Z,86.9184
2023-04-18T06:40:43.518Z,86.8923
2023-04-18T06:41:44.265Z,86.7293
2023-04-18T06:42:44.756Z,86.5424
2023-04-18T06:44:01.572Z,86.3261
2023-04-18T06:44:46.870Z,86.2248
2023-04-18T06:45:47.602Z,86.4247
2023-04-18T06:46:47.677Z,86.9440
2023-04-18T06:47:48.725Z,86.8231
2023-04-18T06:48:50.434Z,87.2111
2023-04-18T06:49:49.849Z,86.8303
2023-04-18T06:50:50.594Z,86.4302
2023-04-18T06:51:51.220Z,86.2561
2023-04-18T06:52:51.798Z,86.4602
2023-04-18T06:53:52.578Z,86.3974
2023-04-18T06:54:53.379Z,86.1488
2023-04-18T06:55:54.132Z,86.4304
2023-04-18T06:56:55.303Z,86.3160
2023-04-18T06:57:56.516Z,86.5760
2023-04-18T06:58:57.321Z,86.4229
2023-04-18T06:59:58.553Z,86.4493
2023-04-18T07:00:59.191Z,86.3102
2023-04-18T07:02:00.129Z,86.3265
2023-04-18T07:03:00.733Z,86.2545
2023-04-18T07:04:00.928Z,86.4401
2023-04-18T07:05:01.336Z,86.4592
2023-04-18T07:06:01.887Z,86.3748
2023-04-18T07:07:02.691Z,86.8179
2023-04-18T07:08:03.351Z,86.7179
2023-04-18T07:09:04.107Z,86.5847
2023-04-18T07:10:04.679Z,86.7770
2023-04-18T07:11:04.699Z,86.5429
2023-04-18T07:12:05.200Z,86.4712
2023-04-18T07:13:05.751Z,86.6589
2023-04-18T07:14:06.656Z,86.1411
2023-04-18T07:15:07.717Z,86.1979
2023-04-18T07:16:08.377Z,85.8826
2023-04-18T07:17:09.054Z,86.0544
2023-04-18T07:18:10.036Z,85.9064
2023-04-18T07:19:10.939Z,85.3828
2023-04-18T07:20:12.987Z,85.4836
2023-04-18T07:21:12.436Z,85.3943
2023-04-18T07:22:13.100Z,85.1589
2023-04-18T07:23:13.597Z,85.1754
2023-04-18T07:24:14.509Z,85.4313
2023-04-18T07:25:15.385Z,85.1748
2023-04-18T07:26:15.619Z,84.7699
2023-04-18T07:27:16.353Z,85.2019
2023-04-18T07:28:17.208Z,85.3052
2023-04-18T07:29:17.675Z,85.2375
2023-04-18T07:30:18.470Z,84.9558
2023-04-18T07:31:19.331Z,84.6930
2023-04-18T07:32:20.080Z,84.9880
2023-04-18T07:33:20.895Z,84.6544
2023-04-18T07:34:21.497Z,85.0009
2023-04-18T07:35:22.119Z,84.4811
2023-04-18T07:36:22.889Z,84.8220
2023-04-18T07:37:23.549Z,84.5024
2023-04-18T07:38:24.191Z,84.3024
2023-04-18T07:39:24.818Z,84.0583
2023-04-18T07:40:25.305Z,84.2639
2023-04-18T07:41:26.032Z,84.6154
2023-04-18T07:42:26.551Z,84.5303
2023-04-18T07:43:26.689Z,84.3405
2023-04-18T07:44:26.864Z,84.3203
2023-04-18T07:45:27.257Z,84.3593
2023-04-18T07:46:27.606Z,84.1647
2023-04-18T07:47:32.242Z,84.4378
2023-04-18T07:48:31.432Z,84.2999
2023-04-18T07:49:32.530Z,84.5993
2023-04-18T07:50:33.251Z,84.2751
2023-04-18T07:51:33.673Z,84.2005
2023-04-18T07:52:34.628Z,83.9396
2023-04-18T07:53:35.275Z,84.1644
2023-04-18T07:54:35.728Z,83.8325
2023-04-18T07:55:36.322Z,83.2860
2023-04-18T07:56:36.785Z,83.2572
2023-04-18T07:57:37.478Z,83.3093
2023-04-18T07:58:38.148Z,83.5407
2023-04-18T07:59:39.316Z,83.1814
2023-04-18T08:00:39.377Z,83.1655
2023-04-18T08:01:39.996Z,82.7065
2023-04-18T08:02:41.328Z,82.5715
2023-04-18T08:03:41.267Z,81.9818
2023-04-18T08:04:41.884Z,81.5323
2023-04-18T08:05:43.021Z,81.9022
2023-04-18T08:06:43.849Z,81.3971
2023-04-18T08:07:44.798Z,81.5218
2023-04-18T08:08:45.609Z,81.2138
2023-04-18T08:09:46.771Z,81.4126
2023-04-18T08:10:47.185Z,81.0439
2023-04-18T08:11:47.874Z,80.3957
2023-04-18T08:12:48.606Z,80.3553
2023-04-18T08:13:49.318Z,80.2074
2023-04-18T08:14:50.235Z,79.8920
2023-04-18T08:15:50.966Z,80.3573
2023-04-18T08:16:51.804Z,79.8154
2023-04-18T08:17:52.388Z,79.8698
2023-04-18T08:18:53.093Z,80.1873
2023-04-18T08:19:53.703Z,79.7916
2023-04-18T08:20:54.198Z,80.0668
2023-04-18T08:21:54.887Z,79.2799
2023-04-18T08:23:06.135Z,79.3769
2023-04-18T08:24:01.983Z,80.1909
2023-04-18T08:25:05.547Z,79.7290
2023-04-18T08:26:03.792Z,79.7554
2023-04-18T08:27:04.186Z,79.9604
2023-04-18T08:28:04.882Z,79.8074
2023-04-18T08:29:05.046Z,79.9011
2023-04-18T08:30:05.868Z,80.2826
2023-04-18T08:31:06.580Z,80.8085
2023-04-18T08:32:07.484Z,81.2272
2023-04-18T08:33:08.635Z,81.1272
2023-04-18T08:34:09.271Z,81.1807
2023-04-18T08:35:09.938Z,81.2493
2023-04-18T08:36:10.559Z,81.4311
2023-04-18T08:37:11.077Z,81.3857
2023-04-18T08:38:11.524Z,81.5289
2023-04-18T08:39:12.212Z,81.3064
2023-04-18T08:40:13.283Z,80.7544
2023-04-18T08:41:13.773Z,80.7694
2023-04-18T08:42:14.485Z,80.1801
2023-04-18T08:43:14.994Z,80.0889
2023-04-18T08:44:15.741Z,79.9828
2023-04-18T08:45:16.723Z,80.2957
2023-04-18T08:46:16.973Z,79.6983
2023-04-18T08:47:18.050Z,79.7194
2023-04-18T08:48:19.102Z,79.7193
2023-04-18T08:49:20.173Z,79.4012
2023-04-18T08:50:20.375Z,79.2223
2023-04-18T08:51:20.450Z,78.8397
2023-04-18T08:52:21.023Z,78.6436
2023-04-18T08:53:21.936Z,78.8574
2023-04-18T08:54:22.483Z,77.9437
2023-04-18T08:55:23.357Z,78.5742
2023-04-18T08:56:23.959Z,78.2405
2023-04-18T08:57:24.502Z,78.6952
2023-04-18T08:58:25.409Z,78.1281
2023-04-18T08:59:26.501Z,78.6301
2023-04-18T09:00:27.587Z,79.2478
2023-04-18T09:01:28.382Z,79.1325
2023-04-18T09:02:29.345Z,78.7905
2023-04-18T09:03:29.938Z,79.0365
2023-04-18T09:04:30.826Z,78.6918
2023-04-18T09:05:32.110Z,78.8378
2023-04-18T09:06:32.238Z,78.8082
2023-04-18T09:07:32.953Z,78.7446
2023-04-18T09:08:34.221Z,79.0494
2023-04-18T09:09:35.008Z,79.3014
2023-04-18T09:10:36.787Z,78.4403
2023-04-18T09:11:36.548Z,78.0948
2023-04-18T09:12:37.255Z,77.7539
2023-04-18T09:13:38.439Z,77.9350
2023-04-18T09:14:38.916Z,77.2210
2023-04-18T09:15:39.631Z,77.3868
2023-04-18T09:16:40.783Z,77.3019
2023-04-18T09:17:41.597Z,76.9717
2023-04-18T09:18:42.348Z,77.2221
2023-04-18T09:19:42.752Z,76.7937
2023-04-18T09:20:43.355Z,76.8394
2023-04-18T09:21:44.008Z,76.9651
2023-04-18T09:22:44.844Z,76.7755
2023-04-18T09:23:45.546Z,77.1248
2023-04-18T09:24:46.796Z,77.2310
2023-04-18T09:25:47.797Z,77.2029
2023-04-18T09:26:48.547Z,77.0033
2023-04-18T09:27:48.912Z,76.9278
2023-04-18T09:28:51.219Z,76.9000
2023-04-18T09:29:50.129Z,76.5948
2023-04-18T09:30:50.747Z,76.4956
2023-04-18T09:31:51.693Z,76.1906
2023-04-18T09:32:52.227Z,76.4499
2023-04-18T09:33:53.221Z,76.5446
2023-04-18T09:34:53.908Z,76.2109
2023-04-18T09:35:54.850Z,75.5043
2023-04-18T09:36:55.805Z,75.5547
2023-04-18T09:37:56.857Z,75.7721
2023-04-18T09:38:57.529Z,76.4223
2023-04-18T09:39:58.302Z,76.9989
2023-04-18T09:40:59.080Z,77.3149
2023-04-18T09:41:59.414Z,76.7713
2023-04-18T09:43:00.180Z,76.4112
2023-04-18T09:44:00.682Z,76.6532
2023-04-18T09:45:01.373Z,75.6758
2023-04-18T09:46:02.424Z,74.9996
2023-04-18T09:47:03.195Z,75.4630
2023-04-18T09:48:03.916Z,75.8485
2023-04-18T09:49:04.614Z,75.6167
2023-04-18T09:50:05.922Z,75.5715
2023-04-18T09:51:06.446Z,75.7629
2023-04-18T09:52:07.079Z,76.3484
2023-04-18T09:53:07.477Z,76.9442
2023-04-18T09:54:08.462Z,76.5441
2023-04-18T09:55:08.718Z,76.3545
2023-04-18T09:56:09.408Z,75.8303
2023-04-18T09:57:10.353Z,75.7711
2023-04-18T09:58:10.899Z,75.4796
2023-04-18T09:59:11.590Z,74.4623
2023-04-18T10:00:12.406Z,74.8219
2023-04-18T10:01:12.494Z,74.5068
2023-04-18T10:02:13.761Z,74.2141
2023-04-18T10:03:14.846Z,74.2150
2023-04-18T10:04:15.725Z,74.0748
2023-04-18T10:05:17.244Z,73.5713
2023-04-18T10:06:16.407Z,73.7139
2023-04-18T10:07:17.025Z,74.0754
2023-04-18T10:08:17.592Z,73.8182
2023-04-18T10:09:18.014Z,74.2275
2023-04-18T10:10:18.644Z,74.3500
2023-04-18T10:11:20.320Z,73.8304
2023-04-18T10:12:19.890Z,73.7197
2023-04-18T10:13:20.641Z,73.5876
2023-04-18T10:14:21.836Z,73.4726
2023-04-18T10:15:22.476Z,73.1993
2023-04-18T10:16:23.459Z,72.6369
2023-04-18T10:17:23.481Z,72.4171
2023-04-18T10:18:24.609Z,72.5297
2023-04-18T10:19:24.534Z,73.6687
2023-04-18T10:20:25.101Z,73.7812
2023-04-18T10:21:25.639Z,73.6547
2023-04-18T10:22:26.218Z,73.0586
2023-04-18T10:23:28.095Z,72.5484
2023-04-18T10:24:27.512Z,71.7366
2023-04-18T10:25:28.045Z,71.6989
2023-04-18T10:26:28.693Z,71.5414
2023-04-18T10:27:29.346Z,72.2704
2023-04-18T10:28:29.840Z,72.7021
2023-04-18T10:29:30.805Z,72.7153
2023-04-18T10:30:31.218Z,73.4821
2023-04-18T10:31:32.250Z,73.5617
2023-04-18T10:32:32.902Z,73.5424
2023-04-18T10:33:33.669Z,73.7241
2023-04-18T10:34:33.463Z,73.7708
2023-04-18T10:35:33.486Z,74.2052
2023-04-18T10:36:34.972Z,74.1422
2023-04-18T10:38:34.758Z,74.1077
2023-04-18T10:39:35.326Z,74.5834
2023-04-18T10:40:36.093Z,74.2500
2023-04-18T10:41:36.048Z,74.1750
2023-04-18T10:43:00.314Z,73.7498
2023-04-18T10:44:00.553Z,73.9953
2023-04-18T10:45:01.093Z,74.3233
2023-04-18T10:46:01.754Z,74.1524
2023-04-18T10:47:02.680Z,73.6476
2023-04-18T10:48:03.062Z,73.4636
2023-04-18T10:49:03.219Z,73.2270
2023-04-18T10:50:08.431Z,72.9277
2023-04-18T10:51:09.113Z,72.7337
2023-04-18T10:52:11.766Z,73.0219
2023-04-18T10:53:10.501Z,72.7238
2023-04-18T10:54:11.030Z,73.0994
2023-04-18T10:55:12.266Z,73.0035
2023-04-18T10:56:12.938Z,72.6843
2023-04-18T10:57:13.500Z,72.5651
2023-04-18T10:58:14.177Z,72.7359
2023-04-18T10:59:14.720Z,72.7871
2023-04-18T11:00:15.336Z,72.8189
2023-04-18T11:01:16.508Z,72.2742
2023-04-18T11:02:17.603Z,72.1291
2023-04-18T11:03:17.709Z,71.2405
2023-04-18T11:04:18.092Z,70.7506
2023-04-18T11:05:17.953Z,71.9568
2023-04-18T11:06:18.691Z,70.8209
2023-04-18T11:07:19.181Z,70.1200
2023-04-18T11:08:19.848Z,69.6485
2023-04-18T11:09:20.429Z,70.3378
2023-04-18T11:10:21.025Z,70.5660
2023-04-18T11:11:22.244Z,71.1317
2023-04-18T11:12:22.776Z,71.5697
2023-04-18T11:13:22.822Z,71.6227
2023-04-18T11:14:23.601Z,72.0705
2023-04-18T11:15:24.430Z,72.6267
2023-04-18T11:16:25.177Z,72.4735
2023-04-18T11:17:26.241Z,72.5400
2023-04-18T11:18:26.283Z,72.0071
2023-04-18T11:19:27.093Z,71.3376
2023-04-18T11:20:28.255Z,71.2092
2023-04-18T11:21:30.463Z,71.0655
2023-04-18T11:22:29.087Z,70.6861
2023-04-18T11:23:30.062Z,70.6708
2023-04-18T11:24:30.015Z,70.2661
2023-04-18T11:25:30.710Z,69.8568
2023-04-18T11:26:31.384Z,69.9483
2023-04-18T11:27:31.585Z,69.8971
2023-04-18T11:28:32.468Z,71.0536
2023-04-18T11:29:33.174Z,71.2006
2023-04-18T11:30:33.957Z,70.4037
2023-04-18T11:31:34.962Z,70.4602
2023-04-18T11:32:35.011Z,70.8621
2023-04-18T11:33:35.795Z,71.5670
2023-04-18T11:34:36.541Z,71.8529
2023-04-18T11:35:37.296Z,71.8422
2023-04-18T11:36:37.735Z,71.4055
2023-04-18T11:37:38.487Z,70.8675
2023-04-18T11:38:39.288Z,70.8528
2023-04-18T11:39:39.850Z,70.1394
2023-04-18T11:40:40.650Z,70.3494
2023-04-18T11:41:41.057Z,69.7573
2023-04-18T11:42:41.810Z,69.5427
2023-04-18T11:43:42.530Z,67.5221
2023-04-18T11:44:43.329Z,67.0445
2023-04-18T11:45:43.967Z,67.3465
2023-04-18T11:46:45.035Z,67.1762
2023-04-18T11:47:45.606Z,67.0203
2023-04-18T11:48:46.248Z,66.8606
2023-04-18T11:49:47.362Z,64.9021
2023-04-18T11:50:48.629Z,64.4179
2023-04-18T11:51:49.880Z,64.4512
2023-04-18T11:52:51.139Z,63.9588
2023-04-18T11:53:52.225Z,64.3316
2023-04-18T11:54:52.823Z,64.4047
2023-04-18T11:55:53.394Z,64.3172
2023-04-18T11:56:54.297Z,63.5197
2023-04-18T11:57:55.005Z,63.4969
2023-04-18T11:58:56.171Z,63.4744
2023-04-18T11:59:57.043Z,61.1298
2023-04-18T12:00:57.256Z,62.8250
2023-04-18T12:01:58.904Z,63.8769
2023-04-18T12:02:58.426Z,65.0120
2023-04-18T12:05:59.406Z,63.1620
2023-04-18T12:06:59.531Z,63.1470
2023-04-18T12:08:00.502Z,62.0151
2023-04-18T12:09:00.940Z,62.1868
2023-04-18T12:10:01.838Z,61.1994
2023-04-18T12:11:02.902Z,59.4506
2023-04-18T12:12:03.693Z,59.3291
2023-04-18T12:13:04.633Z,60.3353
2023-04-18T12:14:05.882Z,59.7024
2023-04-18T12:15:06.410Z,60.4838
2023-04-18T12:16:06.210Z,61.0946
2023-04-18T12:17:06.987Z,61.8322
2023-04-18T12:18:07.100Z,62.3681
2023-04-18T12:19:07.902Z,62.4017
2023-04-18T12:20:09.051Z,63.0205
2023-04-18T12:21:09.542Z,62.1735
2023-04-18T12:22:09.692Z,62.3356